Terminal Aerodrome Forecast
Issued by NWS

Home | Current Version | Previous Version | Text Only | Print | Product List | Glossary On
Versions: 1 2 3 4 5 6 7 8 9 10 11 12 13
799
FTUS43 KMQT 281121
TAFCMX
TAF
KCMX 281121Z 2812/2912 22003KT P6SM VCSH BKN080
     FM281900 14006KT P6SM VCSH BKN090
     FM282200 13005KT P6SM -SHRA BKN080
     FM282300 15004KT P6SM VCSH BKN090
     FM290500 26004KT 6SM BR VCSH BKN030
     FM290600 26005KT 4SM BR BKN008
     FM290900 27006KT P6SM BKN008=

USA.gov is the U.S. government's official web portal to all federal, state and local government web resources and services.